Terminal Aerodrome Forecast
Issued by NWS

Home | Current Version | Previous Version | Graphics & Text | Print | Product List | Glossary On
Versions: 1 2 3 4 5 6 7 8 9 10 11 12 13 14 15 16 17
000
FTUS43 KMPX 221500 AAA
TAFAXN
TAF AMD
KAXN 221513Z 2215/2312 16018G24KT P6SM SCT080 BKN200
     FM221700 17020G30KT P6SM SCT050 BKN090
     FM230000 16013KT 5SM -SHRA BKN020 OVC040
     FM230300 17010KT 6SM BR SCT015 OVC035
     FM230900 24006KT 4SM BR FEW030=

USA.gov is the U.S. government's official web portal to all federal, state and local government web resources and services.